createdAt,value
2018-03-27T00:01:01.013Z,33.58
2018-03-27T00:03:36.112Z,32.20
2018-03-27T00:06:08.563Z,30.23
2018-03-27T00:08:40.682Z,30.55
2018-03-27T00:11:13.472Z,31.33
2018-03-27T00:13:45.631Z,29.95
2018-03-27T00:16:17.591Z,32.10
2018-03-27T00:18:50.012Z,30.00
2018-03-27T00:21:22.682Z,29.90
2018-03-27T00:23:54.752Z,32.45
2018-03-27T00:26:26.771Z,31.02
2018-03-27T00:29:13.893Z,30.92
2018-03-27T00:31:57.732Z,29.12
2018-03-27T00:34:45.117Z,27.37
2018-03-27T00:37:32.072Z,31.00
2018-03-27T00:40:13.804Z,31.60
2018-03-27T00:43:02.612Z,30.33
2018-03-27T00:45:40.922Z,32.03
2018-03-27T00:48:13.512Z,28.58
2018-03-27T00:50:45.563Z,30.83
2018-03-27T00:53:17.951Z,30.45
2018-03-27T00:55:50.314Z,31.67
2018-03-27T00:58:22.612Z,31.15
2018-03-27T01:00:54.242Z,27.52
2018-03-27T01:03:33.272Z,28.90
2018-03-27T01:06:05.523Z,29.12
2018-03-27T01:08:37.182Z,33.30
2018-03-27T01:11:09.551Z,30.10
2018-03-27T01:13:42.383Z,28.85
2018-03-27T01:16:16.792Z,28.10
2018-03-27T01:18:49.783Z,28.02
2018-03-27T01:21:20.412Z,28.92
2018-03-27T01:23:50.495Z,31.48
2018-03-27T01:26:22.451Z,29.90
2018-03-27T01:28:53.597Z,27.33
2018-03-27T01:31:26.013Z,28.25
2018-03-27T01:33:57.211Z,28.38
2018-03-27T01:36:34.300Z,29.77
2018-03-27T01:39:05.271Z,29.35
2018-03-27T01:41:36.922Z,29.85
2018-03-27T01:44:10.802Z,26.23
2018-03-27T01:46:46.233Z,28.30
2018-03-27T01:49:21.782Z,32.08
2018-03-27T01:51:54.003Z,27.35
2018-03-27T01:54:25.091Z,28.05
2018-03-27T01:56:57.672Z,28.15
2018-03-27T01:59:29.843Z,25.73
2018-03-27T02:02:00.772Z,27.75
2018-03-27T02:04:32.123Z,25.37
2018-03-27T02:07:04.083Z,29.65
2018-03-27T02:09:37.592Z,27.67
2018-03-27T02:12:15.723Z,28.52
2018-03-27T02:14:53.791Z,30.00
2018-03-27T02:17:31.071Z,31.55
2018-03-27T02:20:08.142Z,27.83
2018-03-27T02:23:00.143Z,31.23
2018-03-27T02:25:34.102Z,29.02
2018-03-27T02:28:07.912Z,32.80
2018-03-27T02:30:39.322Z,30.25
2018-03-27T02:33:12.342Z,30.27
2018-03-27T02:35:44.099Z,30.12
2018-03-27T02:38:16.303Z,31.45
2018-03-27T02:40:48.422Z,30.05
2018-03-27T02:43:21.525Z,30.83
2018-03-27T02:45:55.626Z,30.08
2018-03-27T02:48:37.223Z,29.23
2018-03-27T02:51:09.088Z,30.83
2018-03-27T02:53:45.032Z,30.48
2018-03-27T02:56:21.711Z,28.52
2018-03-27T02:58:53.705Z,32.55
2018-03-27T03:01:25.982Z,30.25
2018-03-27T03:03:57.945Z,33.47
2018-03-27T03:06:30.783Z,32.45
2018-03-27T03:09:02.743Z,36.65
2018-03-27T03:11:37.102Z,39.15
2018-03-27T03:14:13.123Z,34.50
2018-03-27T03:16:44.092Z,37.45
2018-03-27T03:19:16.462Z,33.60
2018-03-27T03:21:50.882Z,36.17
2018-03-27T03:24:23.843Z,37.13
2018-03-27T03:26:58.362Z,39.70
2018-03-27T03:29:30.112Z,35.72
2018-03-27T03:32:03.757Z,41.70
2018-03-27T03:34:41.145Z,43.03
2018-03-27T03:37:14.732Z,39.13
2018-03-27T03:39:46.573Z,40.50
2018-03-27T03:42:19.223Z,44.17
2018-03-27T03:44:58.602Z,40.50
2018-03-27T03:47:33.612Z,42.03
2018-03-27T03:50:05.382Z,41.85
2018-03-27T03:52:37.532Z,42.47
2018-03-27T03:55:09.855Z,42.03
2018-03-27T03:57:41.460Z,41.05
2018-03-27T04:00:13.023Z,40.58
2018-03-27T04:02:45.271Z,36.55
2018-03-27T04:05:17.863Z,43.25
2018-03-27T04:07:54.192Z,41.75
2018-03-27T04:10:28.342Z,37.88
2018-03-27T04:13:00.642Z,47.13
2018-03-27T04:15:31.631Z,49.88
2018-03-27T04:18:04.011Z,45.42
2018-03-27T04:20:37.091Z,52.28
2018-03-27T04:23:10.150Z,46.90
2018-03-27T04:25:42.604Z,49.47
2018-03-27T04:28:15.862Z,46.78
2018-03-27T04:30:48.183Z,44.92
2018-03-27T04:33:23.777Z,49.55
2018-03-27T04:35:54.712Z,42.42
2018-03-27T04:38:26.252Z,47.72
2018-03-27T04:40:57.511Z,43.70
2018-03-27T04:43:30.202Z,46.03
2018-03-27T04:46:01.152Z,40.42
2018-03-27T04:48:32.711Z,46.00
2018-03-27T04:51:08.742Z,35.95
2018-03-27T04:53:44.902Z,41.63
2018-03-27T04:56:17.270Z,37.83
2018-03-27T04:58:49.471Z,37.45
2018-03-27T05:01:20.612Z,33.90
2018-03-27T05:03:52.432Z,43.25
2018-03-27T05:06:24.706Z,42.22
2018-03-27T05:08:57.483Z,37.95
2018-03-27T05:11:29.352Z,38.47
2018-03-27T05:14:00.212Z,42.15
2018-03-27T05:16:32.662Z,38.58
2018-03-27T05:19:05.336Z,40.35
2018-03-27T05:21:37.391Z,34.40
2018-03-27T05:24:08.191Z,31.85
2018-03-27T05:26:39.615Z,42.55
2018-03-27T05:29:12.871Z,38.08
2018-03-27T05:31:44.947Z,32.63
2018-03-27T05:34:18.642Z,30.17
2018-03-27T05:36:53.062Z,28.87
2018-03-27T05:39:24.411Z,31.70
2018-03-27T05:41:55.842Z,28.25
2018-03-27T05:44:34.782Z,28.80
2018-03-27T05:47:07.182Z,30.37
2018-03-27T05:49:41.673Z,26.85
2018-03-27T05:52:12.822Z,23.95
2018-03-27T05:54:46.431Z,26.65
2018-03-27T05:57:17.972Z,26.50
2018-03-27T05:59:50.207Z,23.15
2018-03-27T06:02:22.310Z,27.85
2018-03-27T06:04:54.052Z,26.48
2018-03-27T06:07:28.682Z,27.95
2018-03-27T06:10:00.442Z,28.62
2018-03-27T06:12:33.362Z,28.83
2018-03-27T06:15:04.882Z,26.87
2018-03-27T06:17:36.431Z,31.77
2018-03-27T06:20:10.542Z,33.10
2018-03-27T06:22:45.922Z,28.42
2018-03-27T06:25:23.682Z,24.63
2018-03-27T06:27:56.573Z,28.05
2018-03-27T06:30:28.251Z,26.20
2018-03-27T06:33:01.203Z,29.48
2018-03-27T06:35:33.102Z,29.92
2018-03-27T06:38:05.742Z,25.37
2018-03-27T06:40:37.602Z,30.45
2018-03-27T06:43:08.183Z,28.30
2018-03-27T06:45:43.222Z,31.02
2018-03-27T06:48:14.622Z,24.52
2018-03-27T06:50:46.472Z,23.30
2018-03-27T06:53:24.222Z,23.95
2018-03-27T06:55:57.563Z,26.40
2018-03-27T06:58:34.451Z,26.40
2018-03-27T07:01:06.502Z,30.98
2018-03-27T07:03:37.451Z,26.15
2018-03-27T07:06:09.014Z,24.48
2018-03-27T07:08:46.262Z,25.15
2018-03-27T07:11:20.812Z,24.17
2018-03-27T07:13:50.736Z,28.70
2018-03-27T07:16:23.138Z,26.52
2018-03-27T07:18:57.924Z,25.00
2018-03-27T07:21:29.362Z,27.35
2018-03-27T07:24:02.192Z,42.30
2018-03-27T07:26:36.236Z,22.17
2018-03-27T07:29:08.522Z,19.00
2018-03-27T07:31:40.426Z,17.98
2018-03-27T07:34:11.742Z,24.10
2018-03-27T07:36:44.103Z,25.00
2018-03-27T07:39:15.223Z,21.10
2018-03-27T07:41:46.932Z,23.17
2018-03-27T07:44:19.684Z,24.02
2018-03-27T07:46:51.034Z,27.25
2018-03-27T07:49:23.341Z,26.40
2018-03-27T07:51:56.232Z,21.73
2018-03-27T07:54:27.742Z,22.80
2018-03-27T07:57:01.274Z,26.80
2018-03-27T07:59:34.161Z,24.42
2018-03-27T08:02:07.652Z,29.33
2018-03-27T08:04:38.653Z,21.67
2018-03-27T08:07:10.552Z,22.70
2018-03-27T08:09:42.781Z,24.42
2018-03-27T08:12:13.512Z,23.42
2018-03-27T08:14:49.063Z,26.05
2018-03-27T08:17:21.341Z,21.30
2018-03-27T08:19:54.021Z,22.40
2018-03-27T08:22:24.753Z,22.87
2018-03-27T08:24:56.954Z,19.55
2018-03-27T08:27:29.268Z,21.42
2018-03-27T08:30:04.761Z,22.17
2018-03-27T08:32:36.270Z,18.52
2018-03-27T08:35:08.653Z,20.52
2018-03-27T08:37:40.951Z,19.80
2018-03-27T08:40:12.873Z,23.73
2018-03-27T08:42:43.952Z,18.35
2018-03-27T08:45:19.672Z,18.95
2018-03-27T08:47:53.623Z,18.83
2018-03-27T08:50:25.853Z,18.92
2018-03-27T08:52:58.242Z,19.75
2018-03-27T08:55:30.223Z,16.52
2018-03-27T08:58:01.441Z,15.30
2018-03-27T09:00:33.438Z,13.07
2018-03-27T09:03:04.432Z,16.30
2018-03-27T09:05:44.204Z,17.20
2018-03-27T09:08:16.541Z,15.77
2018-03-27T09:10:50.213Z,16.58
2018-03-27T09:13:23.222Z,14.75
2018-03-27T09:15:56.742Z,16.60
2018-03-27T09:18:28.240Z,13.95
2018-03-27T09:21:00.751Z,16.60
2018-03-27T09:23:33.371Z,18.65
2018-03-27T09:26:08.771Z,16.75
2018-03-27T09:28:39.714Z,15.88
2018-03-27T09:31:13.921Z,14.98
2018-03-27T09:33:46.093Z,15.00
2018-03-27T09:36:18.361Z,14.43
2018-03-27T09:38:50.126Z,14.10
2018-03-27T09:41:22.713Z,14.32
2018-03-27T09:43:54.181Z,21.45
2018-03-27T09:46:26.262Z,12.70
2018-03-27T09:48:57.772Z,12.43
2018-03-27T09:51:32.033Z,16.98
2018-03-27T09:54:03.531Z,20.55
2018-03-27T09:56:34.692Z,16.95
2018-03-27T09:59:09.202Z,16.10
2018-03-27T10:01:41.782Z,22.73
2018-03-27T10:04:12.813Z,21.98
2018-03-27T10:06:44.063Z,24.08
2018-03-27T10:09:16.064Z,26.90
2018-03-27T10:11:46.761Z,24.87
2018-03-27T10:14:18.413Z,29.37
2018-03-27T10:16:54.661Z,25.37
2018-03-27T10:19:27.381Z,25.65
2018-03-27T10:21:59.713Z,25.42
2018-03-27T10:24:35.991Z,28.67
2018-03-27T10:27:08.350Z,25.95
2018-03-27T10:29:44.119Z,23.48
2018-03-27T10:32:18.721Z,27.23
2018-03-27T10:34:53.783Z,24.23
2018-03-27T10:37:26.991Z,28.38
2018-03-27T10:39:57.523Z,22.23
2018-03-27T10:42:32.531Z,27.60
2018-03-27T10:45:04.112Z,28.87
2018-03-27T10:47:35.281Z,24.23
2018-03-27T10:50:10.391Z,31.23
2018-03-27T10:52:48.153Z,24.92
2018-03-27T10:55:19.595Z,23.35
2018-03-27T10:57:51.774Z,24.95
2018-03-27T11:00:24.232Z,22.23
2018-03-27T11:02:57.636Z,19.60
2018-03-27T11:05:29.123Z,22.92
2018-03-27T11:08:05.655Z,26.83
2018-03-27T11:10:37.953Z,19.58
2018-03-27T11:13:09.772Z,24.42
2018-03-27T11:15:49.290Z,28.62
2018-03-27T11:18:22.412Z,21.30
2018-03-27T11:20:55.081Z,20.95
2018-03-27T11:23:29.601Z,24.10
2018-03-27T11:26:01.061Z,18.37
2018-03-27T11:28:35.231Z,20.48
2018-03-27T11:31:08.902Z,20.20
2018-03-27T11:33:45.444Z,27.10
2018-03-27T11:36:16.801Z,18.98
2018-03-27T11:38:49.867Z,18.00
2018-03-27T11:41:21.893Z,19.80
2018-03-27T11:43:53.334Z,24.05
2018-03-27T11:46:24.641Z,21.30
2018-03-27T11:48:57.032Z,22.55
2018-03-27T11:51:29.221Z,19.00
2018-03-27T11:54:02.868Z,15.35
2018-03-27T11:56:36.792Z,16.15
2018-03-27T11:59:09.252Z,18.08
2018-03-27T12:01:40.822Z,16.65
2018-03-27T12:04:13.803Z,16.98
2018-03-27T12:06:50.054Z,21.87
2018-03-27T12:09:23.482Z,14.80
2018-03-27T12:11:55.272Z,18.58
2018-03-27T12:14:26.322Z,19.42
2018-03-27T12:16:58.561Z,19.83
2018-03-27T12:19:30.796Z,16.37
2018-03-27T12:22:03.162Z,20.60
2018-03-27T12:24:35.027Z,16.95
2018-03-27T12:27:06.381Z,14.30
2018-03-27T12:29:38.024Z,13.27
2018-03-27T12:32:11.353Z,15.35
2018-03-27T12:34:42.771Z,12.68
2018-03-27T12:37:16.055Z,14.18
2018-03-27T12:39:47.732Z,13.30
2018-03-27T12:42:19.912Z,13.45
2018-03-27T12:44:53.124Z,12.50
2018-03-27T12:47:24.572Z,13.90
2018-03-27T12:49:58.241Z,15.70
2018-03-27T12:52:31.567Z,11.55
2018-03-27T12:55:02.871Z,12.60
2018-03-27T12:57:34.153Z,11.27
2018-03-27T13:00:06.182Z,16.87
2018-03-27T13:02:38.131Z,10.90
2018-03-27T13:05:09.732Z,11.45
2018-03-27T13:07:41.662Z,23.83
2018-03-27T13:10:13.723Z,11.40
2018-03-27T13:12:48.313Z,11.80
2018-03-27T13:15:19.833Z,12.07
2018-03-27T13:17:50.831Z,13.85
2018-03-27T13:20:23.619Z,13.13
2018-03-27T13:22:55.371Z,12.37
2018-03-27T13:25:27.030Z,12.82
2018-03-27T13:27:58.171Z,12.63
2018-03-27T13:30:31.554Z,13.00
2018-03-27T13:33:09.541Z,13.07
2018-03-27T13:35:41.131Z,13.90
2018-03-27T13:38:14.512Z,16.03
2018-03-27T13:40:50.172Z,12.50
2018-03-27T13:43:21.141Z,10.97
2018-03-27T13:45:54.391Z,15.33
2018-03-27T13:48:25.961Z,14.30
2018-03-27T13:50:57.603Z,14.50
2018-03-27T13:53:29.743Z,12.95
2018-03-27T13:56:01.564Z,14.65
2018-03-27T13:58:34.005Z,15.53
2018-03-27T14:01:08.921Z,13.37
2018-03-27T14:03:41.702Z,12.10
2018-03-27T14:06:14.191Z,14.27
2018-03-27T14:08:45.981Z,16.63
2018-03-27T14:11:19.861Z,11.97
2018-03-27T14:13:52.655Z,13.63
2018-03-27T14:16:24.630Z,16.23
2018-03-27T14:18:56.597Z,12.80
2018-03-27T14:21:27.591Z,13.07
2018-03-27T14:23:58.732Z,12.02
2018-03-27T14:26:30.393Z,12.35
2018-03-27T14:29:01.644Z,14.18
2018-03-27T14:31:36.781Z,20.10
2018-03-27T14:34:09.073Z,16.98
2018-03-27T14:36:40.263Z,12.77
2018-03-27T14:39:11.843Z,13.82
2018-03-27T14:41:43.403Z,16.30
2018-03-27T14:44:17.914Z,15.10
2018-03-27T14:46:49.745Z,12.55
2018-03-27T14:49:21.122Z,12.85
2018-03-27T14:51:53.604Z,13.27
2018-03-27T14:54:25.574Z,12.05
2018-03-27T14:56:57.717Z,15.25
2018-03-27T14:59:30.627Z,14.87
2018-03-27T15:02:12.262Z,12.55
2018-03-27T15:04:43.037Z,13.50
2018-03-27T15:07:14.992Z,12.30
2018-03-27T15:09:46.854Z,16.33
2018-03-27T15:12:18.518Z,12.02
2018-03-27T15:14:53.264Z,11.60
2018-03-27T15:17:25.748Z,11.10
2018-03-27T15:19:57.614Z,19.48
2018-03-27T15:22:28.503Z,13.20
2018-03-27T15:24:59.304Z,18.35
2018-03-27T15:27:31.332Z,14.77
2018-03-27T15:30:05.303Z,20.08
2018-03-27T15:32:37.413Z,15.15
2018-03-27T15:35:08.903Z,12.57
2018-03-27T15:37:40.322Z,11.93
2018-03-27T15:40:15.212Z,13.88
2018-03-27T15:42:47.174Z,15.55
2018-03-27T15:45:21.276Z,12.50
2018-03-27T15:47:53.343Z,13.50
2018-03-27T15:50:25.141Z,13.55
2018-03-27T15:52:56.053Z,10.80
2018-03-27T15:55:29.953Z,14.38
2018-03-27T15:58:02.154Z,17.10
2018-03-27T16:00:33.302Z,13.65
2018-03-27T16:03:08.484Z,13.20
2018-03-27T16:05:42.816Z,13.82
2018-03-27T16:08:15.736Z,13.23
2018-03-27T16:10:52.562Z,14.25
2018-03-27T16:13:26.576Z,21.35
2018-03-27T16:15:59.503Z,16.20
2018-03-27T16:18:31.773Z,17.98
2018-03-27T16:21:05.754Z,14.10
2018-03-27T16:23:40.482Z,13.52
2018-03-27T16:26:13.773Z,11.10
2018-03-27T16:28:49.834Z,11.27
2018-03-27T16:31:24.153Z,22.30
2018-03-27T16:33:56.002Z,21.17
2018-03-27T16:36:27.664Z,15.07
2018-03-27T16:38:59.452Z,18.45
2018-03-27T16:41:31.073Z,10.90
2018-03-27T16:44:02.322Z,13.60
2018-03-27T16:46:35.822Z,14.65
2018-03-27T16:49:07.993Z,9.82
2018-03-27T16:51:39.273Z,15.25
2018-03-27T16:54:11.192Z,10.95
2018-03-27T16:56:43.564Z,11.90
2018-03-27T16:59:15.014Z,12.20
2018-03-27T17:01:46.900Z,14.70
2018-03-27T17:04:22.424Z,11.68
2018-03-27T17:06:57.893Z,12.48
2018-03-27T17:09:32.763Z,12.05
2018-03-27T17:12:10.173Z,12.45
2018-03-27T17:14:41.102Z,10.38
2018-03-27T17:17:12.662Z,14.87
2018-03-27T17:19:44.102Z,15.40
2018-03-27T17:22:18.542Z,14.32
2018-03-27T17:24:52.962Z,18.75
2018-03-27T17:27:24.303Z,14.87
2018-03-27T17:29:55.992Z,13.13
2018-03-27T17:32:27.403Z,14.82
2018-03-27T17:34:58.853Z,12.30
2018-03-27T17:37:34.824Z,15.35
2018-03-27T17:40:08.304Z,17.25
2018-03-27T17:42:39.244Z,20.50
2018-03-27T17:45:11.515Z,16.95
2018-03-27T17:47:45.523Z,14.75
2018-03-27T17:50:19.897Z,12.57
2018-03-27T17:52:52.123Z,13.82
2018-03-27T17:55:23.974Z,12.25
2018-03-27T17:57:54.643Z,17.95
2018-03-27T18:00:26.466Z,12.68
2018-03-27T18:02:58.532Z,14.93
2018-03-27T18:05:29.814Z,13.73
2018-03-27T18:08:02.152Z,14.65
2018-03-27T18:10:33.803Z,12.50
2018-03-27T18:13:05.998Z,15.52
2018-03-27T18:15:37.713Z,15.52
2018-03-27T18:18:09.503Z,16.20
2018-03-27T18:20:41.704Z,17.12
2018-03-27T18:23:15.363Z,17.40
2018-03-27T18:25:47.634Z,22.58
2018-03-27T18:28:21.774Z,16.55
2018-03-27T18:30:56.916Z,17.98
2018-03-27T18:33:28.943Z,16.37
2018-03-27T18:36:00.482Z,16.45
2018-03-27T18:38:32.665Z,15.57
2018-03-27T18:41:04.513Z,16.73
2018-03-27T18:43:36.883Z,14.55
2018-03-27T18:46:10.283Z,12.75
2018-03-27T18:48:41.784Z,12.00
2018-03-27T18:51:13.494Z,14.63
2018-03-27T18:53:45.543Z,13.23
2018-03-27T18:56:18.943Z,14.82
2018-03-27T18:58:50.553Z,15.30
2018-03-27T19:01:23.687Z,14.73
2018-03-27T19:03:54.524Z,16.58
2018-03-27T19:06:25.912Z,17.12
2018-03-27T19:09:00.207Z,19.45
2018-03-27T19:11:31.873Z,17.42
2018-03-27T19:14:04.563Z,18.52
2018-03-27T19:16:39.664Z,19.70
2018-03-27T19:19:10.813Z,17.85
2018-03-27T19:21:43.334Z,16.42
2018-03-27T19:24:17.704Z,21.17
2018-03-27T19:26:50.794Z,17.85
2018-03-27T19:29:22.544Z,16.45
2018-03-27T19:31:57.673Z,17.98
2018-03-27T19:34:29.744Z,17.80
2018-03-27T19:37:02.779Z,15.48
2018-03-27T19:39:34.744Z,16.33
2018-03-27T19:42:06.783Z,13.32
2018-03-27T19:44:39.432Z,16.30
2018-03-27T19:47:12.264Z,16.60
2018-03-27T19:49:43.754Z,14.45
2018-03-27T19:52:13.814Z,25.48
2018-03-27T19:54:47.644Z,20.00
2018-03-27T19:57:19.332Z,15.32
2018-03-27T19:59:52.742Z,18.30
2018-03-27T20:02:28.003Z,15.93
2018-03-27T20:05:00.074Z,15.52
2018-03-27T20:07:32.623Z,14.85
2018-03-27T20:10:06.432Z,13.50
2018-03-27T20:12:38.742Z,14.18
2018-03-27T20:15:11.104Z,17.95
2018-03-27T20:17:43.482Z,15.40
2018-03-27T20:20:15.383Z,17.83
2018-03-27T20:22:48.904Z,13.07
2018-03-27T20:25:20.483Z,14.13
2018-03-27T20:27:53.754Z,11.07
2018-03-27T20:30:25.417Z,12.43
2018-03-27T20:32:58.694Z,14.90
2018-03-27T20:35:31.303Z,15.48
2018-03-27T20:38:04.465Z,12.75
2018-03-27T20:40:35.643Z,16.85
2018-03-27T20:43:07.054Z,12.15
2018-03-27T20:45:38.433Z,13.43
2018-03-27T20:48:09.473Z,13.55
2018-03-27T20:50:41.393Z,14.30
2018-03-27T20:53:13.677Z,11.55
2018-03-27T20:55:47.983Z,13.55
2018-03-27T20:58:21.202Z,15.35
2018-03-27T21:00:52.393Z,13.10
2018-03-27T21:03:23.863Z,12.25
2018-03-27T21:05:55.834Z,13.82
2018-03-27T21:08:30.553Z,15.05
2018-03-27T21:11:03.343Z,14.57
2018-03-27T21:13:37.053Z,12.13
2018-03-27T21:16:07.584Z,13.90
2018-03-27T21:18:39.133Z,14.77
2018-03-27T21:21:11.047Z,14.57
2018-03-27T21:23:44.314Z,13.27
2018-03-27T21:26:20.143Z,15.80
2018-03-27T21:28:56.293Z,13.27
2018-03-27T21:31:28.552Z,13.00
2018-03-27T21:33:59.914Z,13.65
2018-03-27T21:36:32.513Z,14.40
2018-03-27T21:39:04.953Z,14.73
2018-03-27T21:41:37.432Z,12.35
2018-03-27T21:44:17.784Z,12.57
2018-03-27T21:46:50.914Z,11.45
2018-03-27T21:49:28.814Z,11.40
2018-03-27T21:52:00.660Z,11.95
2018-03-27T21:54:32.822Z,12.20
2018-03-27T21:57:09.073Z,12.80
2018-03-27T21:59:44.613Z,13.02
2018-03-27T22:02:19.354Z,11.30
2018-03-27T22:04:51.393Z,12.60
2018-03-27T22:07:25.513Z,10.50
2018-03-27T22:09:57.723Z,14.27
2018-03-27T22:12:33.032Z,12.00
2018-03-27T22:15:06.664Z,14.85
2018-03-27T22:20:31.758Z,10.70
2018-03-27T22:23:08.322Z,12.25
2018-03-27T22:25:39.965Z,13.13
2018-03-27T22:28:14.794Z,10.32
2018-03-27T22:30:46.793Z,12.23
2018-03-27T22:33:20.614Z,12.15
2018-03-27T22:35:54.103Z,9.98
2018-03-27T22:38:25.503Z,10.63
2018-03-27T22:40:58.293Z,10.43
2018-03-27T22:43:29.394Z,10.85
2018-03-27T22:46:02.043Z,12.50
2018-03-27T22:48:33.563Z,11.43
2018-03-27T22:51:07.356Z,10.27
2018-03-27T22:53:38.704Z,10.68
2018-03-27T22:56:11.343Z,11.07
2018-03-27T22:58:43.563Z,9.82
2018-03-27T23:01:17.994Z,8.90
2018-03-27T23:03:51.272Z,12.80
2018-03-27T23:06:22.442Z,12.30
2018-03-27T23:11:47.949Z,13.48
2018-03-27T23:14:19.909Z,9.93
2018-03-27T23:16:52.890Z,12.10
2018-03-27T23:19:29.049Z,9.20
2018-03-27T23:22:06.349Z,10.95
2018-03-27T23:24:36.570Z,10.48
2018-03-27T23:27:08.529Z,11.57
2018-03-27T23:29:39.869Z,10.88
2018-03-27T23:32:12.350Z,12.18
2018-03-27T23:34:45.167Z,11.12
2018-03-27T23:37:16.369Z,12.95
2018-03-27T23:39:48.330Z,11.02
2018-03-27T23:42:19.789Z,9.25
2018-03-27T23:44:51.389Z,8.32
2018-03-27T23:47:23.509Z,8.02
2018-03-27T23:49:55.169Z,7.87
2018-03-27T23:52:27.409Z,8.20
2018-03-27T23:54:58.070Z,9.25
2018-03-27T23:57:32.370Z,9.93
